createdAt,value
2022-12-01T00:01:59.890Z,17.37
2022-12-01T00:07:03.870Z,18.03
2022-12-01T00:12:07.784Z,16.87
2022-12-01T00:17:12.567Z,20.10
2022-12-01T00:22:21.744Z,18.97
2022-12-01T00:27:25.221Z,18.47
2022-12-01T00:32:31.085Z,19.93
2022-12-01T00:37:35.730Z,15.73
2022-12-01T00:42:39.812Z,17.27
2022-12-01T00:47:44.678Z,17.77
2022-12-01T00:52:48.104Z,18.47
2022-12-01T00:57:51.438Z,17.27
2022-12-01T01:02:56.285Z,18.67
2022-12-01T01:07:59.675Z,18.83
2022-12-01T01:13:03.042Z,17.07
2022-12-01T01:18:09.788Z,20.97
2022-12-01T01:23:13.759Z,18.27
2022-12-01T01:28:17.293Z,15.90
2022-12-01T01:33:22.011Z,21.27
2022-12-01T01:38:25.347Z,19.67
2022-12-01T01:43:44.115Z,18.83
2022-12-01T01:48:56.316Z,18.17
2022-12-01T01:54:03.767Z,17.17
2022-12-01T01:59:07.735Z,15.10
2022-12-01T02:04:14.036Z,15.90
2022-12-01T02:09:17.570Z,16.27
2022-12-01T02:14:44.312Z,14.63
2022-12-01T02:20:18.222Z,16.70
2022-12-01T02:25:28.622Z,16.93
2022-12-01T02:30:42.309Z,18.77
2022-12-01T02:35:51.834Z,16.03
2022-12-01T02:41:01.582Z,17.73
2022-12-01T02:46:12.190Z,14.87
2022-12-01T02:51:20.817Z,17.33
2022-12-01T02:56:25.014Z,17.70
2022-12-01T03:01:51.198Z,18.87
2022-12-01T03:07:02.593Z,18.40
2022-12-01T03:12:15.783Z,17.40
2022-12-01T03:17:28.019Z,16.80
2022-12-01T03:22:37.736Z,17.83
2022-12-01T03:28:13.529Z,19.27
2022-12-01T03:33:13.975Z,19.07
2022-12-01T03:38:22.018Z,18.77
2022-12-01T03:43:30.728Z,18.67
2022-12-01T03:48:36.034Z,16.80
2022-12-01T03:53:48.463Z,17.23
2022-12-01T03:58:55.963Z,17.93
2022-12-01T04:04:06.199Z,16.90
2022-12-01T04:09:09.687Z,16.20
2022-12-01T04:14:13.131Z,17.30
2022-12-01T04:19:18.019Z,18.43
2022-12-01T04:24:21.614Z,19.07
2022-12-01T04:29:25.056Z,15.50
2022-12-01T04:34:29.842Z,29.73
2022-12-01T04:39:33.625Z,18.80
2022-12-01T04:44:37.719Z,15.53
2022-12-01T04:49:42.615Z,17.60
2022-12-01T04:54:46.016Z,15.23
2022-12-01T04:59:49.656Z,18.07
2022-12-01T05:04:54.800Z,17.40
2022-12-01T05:09:58.267Z,15.77
2022-12-01T05:15:03.101Z,19.50
2022-12-01T05:20:26.997Z,17.67
2022-12-01T05:25:30.421Z,14.70
2022-12-01T05:30:34.524Z,16.07
2022-12-01T05:35:39.342Z,18.57
2022-12-01T05:40:42.802Z,18.87
2022-12-01T05:45:46.266Z,18.43
2022-12-01T05:50:51.141Z,15.80
2022-12-01T05:55:55.426Z,19.20
2022-12-01T06:00:59.009Z,17.83
2022-12-01T06:06:03.814Z,15.20
2022-12-01T06:11:07.563Z,17.43
2022-12-01T06:16:11.193Z,17.07
2022-12-01T06:21:15.941Z,18.47
2022-12-01T06:26:19.405Z,19.47
2022-12-01T06:31:22.759Z,20.90
2022-12-01T06:36:27.529Z,20.00
2022-12-01T06:41:31.084Z,17.07
2022-12-01T06:46:34.871Z,16.47
2022-12-01T06:51:39.899Z,17.37
2022-12-01T06:56:44.237Z,17.70
2022-12-01T07:01:47.965Z,15.93
2022-12-01T07:06:52.824Z,17.97
2022-12-01T07:11:56.338Z,16.03
2022-12-01T07:17:00.529Z,17.57
2022-12-01T07:22:05.534Z,18.90
2022-12-01T07:27:09.192Z,21.10
2022-12-01T07:32:13.287Z,19.30
2022-12-01T07:37:18.284Z,16.67
2022-12-01T07:42:21.675Z,18.50
2022-12-01T07:47:25.034Z,22.60
2022-12-01T07:52:30.117Z,16.70
2022-12-01T07:57:33.448Z,17.17
2022-12-01T08:02:36.945Z,20.93
2022-12-01T08:07:41.950Z,18.97
2022-12-01T08:12:48.395Z,18.63
2022-12-01T08:17:51.746Z,19.27
2022-12-01T08:22:56.484Z,21.53
2022-12-01T08:28:01.635Z,19.23
2022-12-01T08:33:05.224Z,18.40
2022-12-01T08:38:11.085Z,17.77
2022-12-01T08:43:34.673Z,19.17
2022-12-01T08:48:38.127Z,17.33
2022-12-01T08:53:45.894Z,17.67
2022-12-01T08:58:50.423Z,18.87
2022-12-01T09:04:05.881Z,16.70
2022-12-01T09:09:14.969Z,17.83
2022-12-01T09:14:19.481Z,18.13
2022-12-01T09:19:24.982Z,16.67
2022-12-01T09:24:30.459Z,17.73
2022-12-01T09:29:34.404Z,16.27
2022-12-01T09:34:37.865Z,18.63
2022-12-01T09:39:42.535Z,19.97
2022-12-01T09:44:49.902Z,19.53
2022-12-01T09:49:58.771Z,18.47
2022-12-01T09:55:03.946Z,17.60
2022-12-01T10:00:13.513Z,19.03
2022-12-01T10:05:20.129Z,20.40
2022-12-01T10:10:30.057Z,20.17
2022-12-01T10:15:41.908Z,18.67
2022-12-01T10:20:51.326Z,16.53
2022-12-01T10:25:58.556Z,17.67
2022-12-01T10:31:12.692Z,16.27
2022-12-01T10:36:16.320Z,19.97
2022-12-01T10:41:23.377Z,18.67
2022-12-01T10:46:34.057Z,18.23
2022-12-01T10:51:53.198Z,19.93
2022-12-01T10:56:59.481Z,15.87
2022-12-01T11:02:05.180Z,17.40
2022-12-01T11:07:08.803Z,24.43
2022-12-01T11:12:17.238Z,21.33
2022-12-01T11:17:42.835Z,17.57
2022-12-01T11:22:46.413Z,18.07
2022-12-01T11:27:54.413Z,18.90
2022-12-01T11:33:00.939Z,18.60
2022-12-01T11:38:28.801Z,16.93
2022-12-01T11:43:35.038Z,17.67
2022-12-01T11:48:38.561Z,18.07
2022-12-01T11:53:43.651Z,14.47
2022-12-01T11:58:50.099Z,16.83
2022-12-01T12:04:03.408Z,15.30
2022-12-01T12:09:24.973Z,18.57
2022-12-01T12:14:51.791Z,15.53
2022-12-01T12:20:12.935Z,18.43
2022-12-01T12:25:27.743Z,18.93
2022-12-01T12:30:36.690Z,8.50
2022-12-01T12:35:46.218Z,12.03
2022-12-01T12:40:57.208Z,18.60
2022-12-01T12:46:08.635Z,18.97
2022-12-01T12:51:16.352Z,18.43
2022-12-01T12:56:23.698Z,20.80
2022-12-01T13:01:33.488Z,19.13
2022-12-01T13:06:40.343Z,17.80
2022-12-01T13:11:50.029Z,18.33
2022-12-01T13:17:00.003Z,16.77
2022-12-01T13:22:07.800Z,17.50
2022-12-01T13:27:19.008Z,18.13
2022-12-01T13:32:32.797Z,16.93
2022-12-01T13:37:38.534Z,16.87
2022-12-01T13:42:57.556Z,17.77
2022-12-01T13:48:03.608Z,14.40
2022-12-01T13:53:13.509Z,16.23
2022-12-01T13:58:41.461Z,16.13
2022-12-01T14:03:54.171Z,16.97
2022-12-01T14:09:01.167Z,13.70
2022-12-01T14:14:13.348Z,15.33
2022-12-01T14:19:34.229Z,17.00
2022-12-01T14:24:41.481Z,15.30
2022-12-01T14:29:44.945Z,16.97
2022-12-01T14:34:57.282Z,11.90
2022-12-01T14:40:08.014Z,14.93
2022-12-01T14:45:16.349Z,16.33
2022-12-01T14:50:25.429Z,17.27
2022-12-01T14:55:40.415Z,14.30
2022-12-01T15:00:59.522Z,14.83
2022-12-01T15:06:04.554Z,12.00
2022-12-01T15:11:14.418Z,11.97
2022-12-01T15:16:20.083Z,14.07
2022-12-01T15:21:27.848Z,15.30
2022-12-01T15:26:33.327Z,12.67
2022-12-01T15:31:36.729Z,12.63
2022-12-01T15:36:41.591Z,14.10
2022-12-01T15:41:46.786Z,17.07
2022-12-01T15:46:50.376Z,14.77
2022-12-01T15:51:56.263Z,16.37
2022-12-01T15:57:00.960Z,17.23
2022-12-01T16:02:17.671Z,13.90
2022-12-01T16:07:22.789Z,11.00
2022-12-01T16:12:27.491Z,13.53
2022-12-01T16:17:43.496Z,15.63
2022-12-01T16:22:50.694Z,15.53
2022-12-01T16:27:56.730Z,16.03
2022-12-01T16:33:08.257Z,17.13
2022-12-01T16:38:20.461Z,15.77
2022-12-01T16:43:26.645Z,12.70
2022-12-01T16:48:35.136Z,14.70
2022-12-01T16:53:40.559Z,13.60
2022-12-01T16:58:45.914Z,13.43
2022-12-01T17:03:49.867Z,16.37
2022-12-01T17:08:55.296Z,17.20
2022-12-01T17:13:59.266Z,16.20
2022-12-01T17:19:03.658Z,12.43
2022-12-01T17:24:10.845Z,13.87
2022-12-01T17:29:14.702Z,14.27
2022-12-01T17:34:19.323Z,13.57
2022-12-01T17:39:25.699Z,17.90
2022-12-01T17:44:29.592Z,15.13
2022-12-01T17:49:34.124Z,14.50
2022-12-01T17:54:42.689Z,14.60
2022-12-01T17:59:47.510Z,14.17
2022-12-01T18:04:51.936Z,14.17
2022-12-01T18:09:58.043Z,16.67
2022-12-01T18:15:03.028Z,14.77
2022-12-01T18:20:11.226Z,13.80
2022-12-01T18:25:17.144Z,14.13
2022-12-01T18:30:23.573Z,19.10
2022-12-01T18:35:31.704Z,16.40
2022-12-01T18:40:41.103Z,15.37
2022-12-01T18:45:45.985Z,14.63
2022-12-01T18:50:53.775Z,15.33
2022-12-01T18:56:07.583Z,14.93
2022-12-01T19:01:22.386Z,15.33
2022-12-01T19:06:28.955Z,11.90
2022-12-01T19:11:37.661Z,12.00
2022-12-01T19:16:42.754Z,12.67
2022-12-01T19:21:48.190Z,12.20
2022-12-01T19:26:55.709Z,12.97
2022-12-01T19:32:02.557Z,15.13
2022-12-01T19:37:11.606Z,16.87
2022-12-01T19:42:17.797Z,13.90
2022-12-01T19:47:26.273Z,15.50
2022-12-01T19:52:31.790Z,12.17
2022-12-01T19:57:38.597Z,13.07
2022-12-01T20:02:43.646Z,11.87
2022-12-01T20:07:50.232Z,14.33
2022-12-01T20:12:57.607Z,13.40
2022-12-01T20:18:03.165Z,13.77
2022-12-01T20:23:08.852Z,14.63
2022-12-01T20:28:14.960Z,14.27
2022-12-01T20:33:19.928Z,13.97
2022-12-01T20:38:27.423Z,12.70
2022-12-01T20:43:37.186Z,13.43
2022-12-01T20:48:42.244Z,15.67
2022-12-01T20:54:12.427Z,14.87
2022-12-01T20:59:14.981Z,14.57
2022-12-01T21:04:19.332Z,13.97
2022-12-01T21:09:26.547Z,13.67
2022-12-01T21:14:36.643Z,14.37
2022-12-01T21:19:52.309Z,14.10
2022-12-01T21:25:03.893Z,16.20
2022-12-01T21:30:17.633Z,13.50
2022-12-01T21:35:23.726Z,11.67
2022-12-01T21:40:29.310Z,12.83
2022-12-01T21:45:34.257Z,11.33
2022-12-01T21:50:37.719Z,11.40
2022-12-01T21:55:42.789Z,11.53
2022-12-01T22:00:47.520Z,13.37
2022-12-01T22:06:21.269Z,12.30
2022-12-01T22:11:20.136Z,13.10
2022-12-01T22:16:29.960Z,13.10
2022-12-01T22:21:46.855Z,12.50
2022-12-01T22:26:54.192Z,11.67
2022-12-01T22:32:33.447Z,13.27
2022-12-01T22:37:41.036Z,14.30
2022-12-01T22:42:44.682Z,12.27
2022-12-01T22:47:49.402Z,10.93
2022-12-01T22:52:54.232Z,12.37
2022-12-01T22:57:57.729Z,13.07
2022-12-01T23:03:02.935Z,13.13
2022-12-01T23:08:11.990Z,11.37
2022-12-01T23:13:17.992Z,11.33
2022-12-01T23:18:25.463Z,10.90
2022-12-01T23:23:30.285Z,13.33
2022-12-01T23:28:34.086Z,13.43
2022-12-01T23:33:38.855Z,10.13
2022-12-01T23:38:44.309Z,14.17
2022-12-01T23:43:48.050Z,13.60
2022-12-01T23:48:55.299Z,14.00
2022-12-01T23:54:00.567Z,12.07
2022-12-01T23:59:03.905Z,12.07
